Time;durP1;ratioP1;P1;durP2;ratioP2;P2;SDS_P1;SDS_P2;PMS_P1;PMS_P2;Temp;Humidity;BMP_temperature;BMP_pressure;BME280_temperature;BME280_humidity;BME280_pressure;Samples;Min_cycle;Max_cycle;Signal;HPM_P1;HPM_P2
2023/09/27 00:00:08;;;;;;;14.38;5.75;;;;;;;-144.30;76.66;84929.28;5052449;28;20235;-61
2023/09/27 00:02:35;;;;;;;11.45;5.85;;;;;;;-144.30;76.70;84935.25;5052565;28;20654;-60
2023/09/27 00:05:06;;;;;;;12.80;5.65;;;;;;;-144.30;76.76;84963.09;5052463;28;20196;-59
2023/09/27 00:07:34;;;;;;;12.32;6.38;;;;;;;-144.30;76.20;84959.13;5052556;28;20212;-66
2023/09/27 00:10:02;;;;;;;15.63;6.47;;;;;;;-144.30;75.51;84939.25;5052342;28;20197;-60
2023/09/27 00:12:29;;;;;;;12.43;5.63;;;;;;;-144.30;75.68;84923.34;5052490;28;20204;-61
2023/09/27 00:14:57;;;;;;;11.52;5.60;;;;;;;-144.30;75.90;84921.34;5052884;28;20197;-61
2023/09/27 00:17:24;;;;;;;16.55;5.90;;;;;;;-144.30;76.24;84919.34;5052163;28;20203;-62
2023/09/27 00:19:51;;;;;;;8.30;5.93;;;;;;;-144.30;76.17;84973.03;5052182;28;20193;-67
2023/09/27 00:22:18;;;;;;;13.57;5.88;;;;;;;-144.30;76.02;84909.41;5052158;28;20200;-67
2023/09/27 00:24:46;;;;;;;20.73;6.75;;;;;;;-144.30;76.85;84980.97;5051699;28;20199;-67
2023/09/27 00:27:13;;;;;;;17.60;6.15;;;;;;;-144.30;77.58;84984.97;5051840;28;20221;-66
2023/09/27 00:29:41;;;;;;;10.02;5.95;;;;;;;-144.30;77.99;85014.78;5051867;28;20204;-60
2023/09/27 00:32:08;;;;;;;9.35;6.10;;;;;;;-144.30;78.01;84980.97;5052173;28;20219;-66
2023/09/27 00:34:35;;;;;;;10.77;6.30;;;;;;;-144.30;78.07;84901.47;5052116;28;20203;-67
2023/09/27 00:37:02;;;;;;;13.88;6.82;;;;;;;-144.30;78.39;84979.00;5051979;28;20246;-67
2023/09/27 00:39:29;;;;;;;9.75;6.38;;;;;;;-144.30;79.27;84982.97;5052169;28;20636;-66
2023/09/27 00:41:57;;;;;;;12.32;6.10;;;;;;;-144.30;79.64;85034.66;5051685;28;20203;-66
2023/09/27 00:44:24;;;;;;;12.77;6.68;;;;;;;-144.30;79.80;85028.69;5051713;28;20560;-66
2023/09/27 00:46:52;;;;;;;17.98;6.35;;;;;;;-144.30;79.71;84998.88;5051824;28;20603;-67
2023/09/27 00:49:19;;;;;;;16.48;6.43;;;;;;;-144.30;79.20;85046.56;5051835;28;20631;-65
2023/09/27 00:51:46;;;;;;;11.93;6.03;;;;;;;-144.30;79.15;85046.56;5051532;28;20200;-67
2023/09/27 00:54:13;;;;;;;8.75;6.15;;;;;;;-144.30;79.14;85018.75;5051353;28;20239;-66
2023/09/27 00:56:41;;;;;;;15.10;6.20;;;;;;;-144.30;78.98;85036.63;5051845;28;20727;-66
2023/09/27 00:59:10;;;;;;;16.80;6.13;;;;;;;-144.30;79.05;85026.69;5051736;28;20646;-66
2023/09/27 01:01:39;;;;;;;13.48;6.20;;;;;;;-144.30;78.53;85060.50;5051354;28;20201;-66
2023/09/27 01:04:06;;;;;;;9.90;5.18;;;;;;;-144.30;78.30;85050.53;5051508;28;20551;-66
2023/09/27 01:06:33;;;;;;;10.20;5.82;;;;;;;-144.30;78.52;85038.63;5051292;28;20232;-66
2023/09/27 01:09:00;;;;;;;9.63;5.45;;;;;;;-144.30;78.20;85024.72;5051829;28;20192;-66
2023/09/27 01:11:28;;;;;;;6.55;4.97;;;;;;;-144.30;77.52;85058.50;5050932;28;20607;-66
2023/09/27 01:13:55;;;;;;;10.25;5.05;;;;;;;-144.30;77.34;85004.84;5051375;28;20556;-66
2023/09/27 01:16:23;;;;;;;7.13;5.35;;;;;;;-144.30;76.82;85002.84;5051076;28;20200;-67
2023/09/27 01:18:50;;;;;;;17.40;5.63;;;;;;;-144.30;76.94;85028.69;5051166;28;20215;-67
2023/09/27 01:21:19;;;;;;;16.65;6.20;;;;;;;-144.30;77.29;85032.66;5051053;28;20219;-67
2023/09/27 01:23:50;;;;;;;18.27;5.60;;;;;;;-144.30;77.70;85080.38;5050866;28;20197;-66
2023/09/27 01:26:18;;;;;;;5.30;4.80;;;;;;;-144.30;77.82;84967.06;5051136;28;20221;-60
2023/09/27 01:28:47;;;;;;;11.50;5.10;;;;;;;-144.30;78.16;85058.50;5050838;28;20228;-59
2023/09/27 01:31:14;;;;;;;14.10;6.10;;;;;;;-144.30;78.33;85080.38;5050624;28;20200;-60
2023/09/27 01:33:41;;;;;;;6.05;5.35;;;;;;;-144.30;78.06;85066.44;5050797;28;20199;-60
2023/09/27 01:36:08;;;;;;;13.40;6.45;;;;;;;-144.30;77.68;85066.44;5049943;28;20192;-60
2023/09/27 01:38:35;;;;;;;17.55;6.13;;;;;;;-144.30;77.92;85080.38;5050745;28;20200;-66
2023/09/27 01:41:04;;;;;;;12.25;6.97;;;;;;;-144.30;78.23;85098.25;5051133;28;20197;-67
2023/09/27 01:43:31;;;;;;;13.70;6.97;;;;;;;-144.30;78.45;85102.22;5050813;28;20197;-66
2023/09/27 01:45:58;;;;;;;10.68;7.28;;;;;;;-144.30;78.88;85108.19;5050393;28;20228;-67
2023/09/27 01:48:25;;;;;;;20.02;7.40;;;;;;;-144.30;79.41;85120.13;5050596;28;20196;-67
2023/09/27 01:50:52;;;;;;;11.75;7.43;;;;;;;-144.30;79.56;85086.31;5050395;28;20196;-67
2023/09/27 01:53:19;;;;;;;13.10;7.20;;;;;;;-144.30;79.35;85050.53;5050472;28;20259;-66
2023/09/27 01:55:47;;;;;;;13.68;6.97;;;;;;;-144.30;79.22;85118.13;5050626;28;20594;-60
2023/09/27 01:58:15;;;;;;;14.32;7.38;;;;;;;-144.30;79.47;85094.28;5050358;28;20734;-59
2023/09/27 02:00:42;;;;;;;12.10;7.18;;;;;;;-144.30;79.83;85145.97;5050427;28;20592;-61
2023/09/27 02:03:09;;;;;;;12.23;6.72;;;;;;;-144.30;79.93;85072.41;5050872;28;20203;-61
2023/09/27 02:05:36;;;;;;;14.27;6.57;;;;;;;-144.30;80.14;85102.22;5050237;28;20203;-66
2023/09/27 02:08:03;;;;;;;10.98;6.50;;;;;;;-144.30;80.43;85098.25;5050442;28;20646;-66
2023/09/27 02:10:30;;;;;;;13.82;6.63;;;;;;;-144.30;80.89;85143.97;5050341;28;20708;-67
2023/09/27 02:12:57;;;;;;;17.80;6.75;;;;;;;-144.30;80.96;85118.13;5050169;28;20278;-67
2023/09/27 02:15:25;;;;;;;16.08;7.22;;;;;;;-144.30;80.93;85128.06;5050197;28;20197;-67
2023/09/27 02:17:52;;;;;;;10.15;6.40;;;;;;;-144.30;80.83;85151.94;5050035;28;20188;-66
2023/09/27 02:20:19;;;;;;;11.70;7.13;;;;;;;-144.30;80.83;85141.97;5050000;28;20208;-66
2023/09/27 02:22:47;;;;;;;13.13;7.65;;;;;;;-144.30;80.61;85136.03;5050484;28;20587;-59
2023/09/27 02:25:15;;;;;;;14.80;9.32;;;;;;;-144.30;80.55;85106.22;5050196;28;20752;-59
2023/09/27 02:27:41;;;;;;;22.33;9.85;;;;;;;-144.30;80.50;85048.56;5050025;28;20231;-65
2023/09/27 02:30:11;;;;;;;20.33;9.27;;;;;;;-144.30;80.30;85136.03;5049831;28;20232;-66
2023/09/27 02:32:40;;;;;;;18.00;10.20;;;;;;;-144.30;80.00;85140.00;5049996;28;20414;-65
2023/09/27 02:35:09;;;;;;;16.73;9.57;;;;;;;-144.30;80.29;85090.31;5050197;28;20201;-61
2023/09/27 02:37:36;;;;;;;19.65;9.52;;;;;;;-144.30;80.37;85116.16;5050031;28;20196;-59
2023/09/27 02:40:11;;;;;;;24.90;9.30;;;;;;;-144.30;80.48;85159.88;5050012;28;20592;-60
2023/09/27 02:42:40;;;;;;;15.15;8.63;;;;;;;-144.30;80.57;85120.13;5050087;28;20207;-60
2023/09/27 02:45:09;;;;;;;19.98;8.20;;;;;;;-144.30;80.89;85159.88;5049725;28;20668;-60
2023/09/27 02:47:36;;;;;;;20.67;8.65;;;;;;;-144.30;80.85;85145.97;5051053;28;20235;-60
2023/09/27 02:50:06;;;;;;;16.40;7.38;;;;;;;-144.30;80.93;85585.28;5054088;28;20201;-60
2023/09/27 02:52:33;;;;;;;21.00;7.85;;;;;;;-144.30;80.71;85130.06;5053811;28;20201;-59
2023/09/27 02:54:59;;;;;;;12.07;8.15;;;;;;;-144.30;81.09;85169.81;5053648;28;20202;-60
2023/09/27 02:57:26;;;;;;;11.20;6.95;;;;;;;-144.30;80.94;85161.88;5053756;28;20193;-60
2023/09/27 02:59:53;;;;;;;12.00;7.55;;;;;;;-144.30;81.03;85118.13;5053642;28;20690;-59
2023/09/27 03:02:21;;;;;;;13.10;7.28;;;;;;;-144.30;80.74;85143.97;5053900;28;20656;-60
2023/09/27 03:04:48;;;;;;;15.43;7.28;;;;;;;-144.30;80.63;85130.06;5053817;28;20736;-61
2023/09/27 03:07:17;;;;;;;15.60;7.25;;;;;;;-144.30;80.57;85143.97;5053362;28;20220;-60
2023/09/27 03:09:44;;;;;;;13.35;7.03;;;;;;;-144.30;80.37;85143.97;5053544;28;20201;-59
2023/09/27 03:12:11;;;;;;;11.40;7.10;;;;;;;-144.30;80.31;85124.09;5053868;28;20205;-59
2023/09/27 03:14:38;;;;;;;16.05;7.20;;;;;;;-144.30;80.24;85161.88;5053410;28;20197;-59
2023/09/27 03:17:05;;;;;;;13.52;7.47;;;;;;;-144.30;80.49;85171.81;5053263;28;20197;-58
2023/09/27 03:19:32;;;;;;;12.88;7.45;;;;;;;-144.30;80.55;85159.88;5053462;28;20200;-59
2023/09/27 03:21:59;;;;;;;13.02;7.05;;;;;;;-144.30;80.54;85132.03;5053049;28;20200;-67
2023/09/27 03:24:29;;;;;;;14.65;7.45;;;;;;;-144.30;80.51;85134.03;5053431;28;20628;-67
2023/09/27 03:26:56;;;;;;;11.13;7.25;;;;;;;-144.30;80.71;85155.91;5053160;28;20228;-68
2023/09/27 03:29:24;;;;;;;18.73;7.63;;;;;;;-144.30;80.81;85110.19;5053119;28;20193;-68
2023/09/27 03:31:50;;;;;;;13.93;7.18;;;;;;;-144.30;80.85;85143.97;5053113;28;20668;-69
2023/09/27 03:34:17;;;;;;;19.40;7.97;;;;;;;-144.30;81.11;85171.81;5053312;28;20205;-68
2023/09/27 03:36:45;;;;;;;13.55;6.97;;;;;;;-144.30;81.10;85177.75;5052917;28;20204;-68
2023/09/27 03:39:11;;;;;;;16.30;7.50;;;;;;;-144.30;81.15;85155.91;5052746;28;20254;-67
2023/09/27 03:41:40;;;;;;;14.90;7.40;;;;;;;-144.30;80.63;85163.84;5052669;28;20200;-68
2023/09/27 03:44:07;;;;;;;10.15;6.85;;;;;;;-144.30;80.17;85149.94;5052907;28;20669;-68
2023/09/27 03:46:34;;;;;;;12.32;6.30;;;;;;;-144.30;80.16;85157.88;5052714;28;20252;-69
2023/09/27 03:49:01;;;;;;;16.95;6.75;;;;;;;-144.30;80.01;85157.88;5052367;28;20197;-68
2023/09/27 03:51:28;;;;;;;13.40;6.53;;;;;;;-144.30;80.14;85185.72;5052763;28;20197;-59
2023/09/27 03:53:56;;;;;;;13.80;6.85;;;;;;;-144.30;80.31;85171.81;5051029;28;20620;-62
2023/09/27 03:56:23;;;;;;;11.25;7.25;;;;;;;-144.30;80.32;85187.69;5048195;28;20290;-62
2023/09/27 03:58:52;;;;;;;9.73;6.68;;;;;;;-144.30;80.05;85189.69;5040807;28;20197;-62
2023/09/27 04:01:19;;;;;;;10.68;6.75;;;;;;;-144.30;80.36;85197.66;5042736;28;20603;-62
2023/09/27 04:03:47;;;;;;;15.90;7.22;;;;;;;-144.30;80.43;85165.84;5041627;28;20654;-62
2023/09/27 04:06:14;;;;;;;13.07;6.40;;;;;;;-144.30;80.29;85213.53;5042075;28;20275;-61
2023/09/27 04:08:42;;;;;;;15.73;6.82;;;;;;;-144.30;80.56;85159.88;5042803;28;20700;-61
2023/09/27 04:11:09;;;;;;;18.33;8.03;;;;;;;-144.30;80.76;85157.88;5041202;28;20241;-61
2023/09/27 04:13:36;;;;;;;15.07;7.80;;;;;;;-144.30;80.85;85195.66;5042718;28;20189;-62
2023/09/27 04:16:05;;;;;;;17.55;7.72;;;;;;;-144.30;81.02;85209.56;5052243;28;20585;-63
2023/09/27 04:18:32;;;;;;;16.13;8.47;;;;;;;-144.30;81.26;85211.56;5052245;28;20287;-63
2023/09/27 04:21:06;;;;;;;14.60;7.38;;;;;;;-144.30;81.29;85171.81;5052123;28;20208;-62
2023/09/27 04:23:33;;;;;;;15.90;7.35;;;;;;;-144.30;81.49;85199.63;5052281;28;20212;-65
2023/09/27 04:26:00;;;;;;;19.58;8.13;;;;;;;-144.30;81.64;85211.56;5048333;28;20204;-62
2023/09/27 04:28:27;;;;;;;12.32;7.90;;;;;;;-144.30;81.73;85205.59;5051427;28;20220;-63
2023/09/27 04:30:54;;;;;;;14.23;7.50;;;;;;;-144.30;81.70;85221.50;5051905;28;20200;-64
2023/09/27 04:33:22;;;;;;;11.60;7.50;;;;;;;-144.30;81.06;85195.66;5050887;28;20223;-61
2023/09/27 04:35:49;;;;;;;16.67;8.93;;;;;;;-144.30;81.14;85205.59;5049256;28;20196;-61
2023/09/27 04:38:16;;;;;;;19.15;7.97;;;;;;;-144.30;81.02;85193.66;5051084;28;20196;-61
2023/09/27 04:40:43;;;;;;;15.90;8.15;;;;;;;-144.30;80.91;85197.66;5051786;28;20203;-63
2023/09/27 04:43:10;;;;;;;14.47;7.97;;;;;;;-144.30;80.70;85213.53;5051761;28;20200;-63
2023/09/27 04:45:38;;;;;;;20.70;8.05;;;;;;;-144.30;80.55;85183.72;5051690;28;20193;-61
2023/09/27 04:48:06;;;;;;;13.53;7.00;;;;;;;-144.30;80.09;85149.94;5051436;28;20223;-62
2023/09/27 04:50:35;;;;;;;18.58;10.18;;;;;;;-144.30;79.49;85179.75;5051590;28;20291;-61
2023/09/27 04:53:01;;;;;;;27.20;12.65;;;;;;;-144.30;79.29;85130.06;5051322;28;20232;-62
2023/09/27 04:55:29;;;;;;;27.60;13.98;;;;;;;-144.30;78.69;85114.16;5051704;28;20574;-62
2023/09/27 04:57:56;;;;;;;21.35;11.25;;;;;;;-144.30;77.59;85122.09;5051924;28;20657;-62
2023/09/27 05:00:24;;;;;;;12.57;8.55;;;;;;;-144.30;77.34;85102.22;5051561;28;20201;-65
2023/09/27 05:02:52;;;;;;;18.85;8.63;;;;;;;-144.30;76.25;85076.38;5051273;28;20196;-62
2023/09/27 05:05:19;;;;;;;16.20;8.82;;;;;;;-144.30;75.66;85090.31;5051654;28;20201;-62
2023/09/27 05:07:48;;;;;;;23.33;10.82;;;;;;;-144.30;75.50;85050.53;5051318;28;20323;-63
2023/09/27 05:10:15;;;;;;;20.13;9.43;;;;;;;-144.30;75.31;85048.56;5051303;28;20588;-62
2023/09/27 05:12:42;;;;;;;19.23;9.25;;;;;;;-144.30;74.79;85052.53;5047492;28;20204;-62
2023/09/27 05:15:10;;;;;;;14.13;7.82;;;;;;;-144.30;73.90;84998.88;5049311;28;20428;-63
2023/09/27 05:17:36;;;;;;;12.95;6.68;;;;;;;-144.30;73.13;85010.78;5050490;28;20207;-62
2023/09/27 05:20:09;;;;;;;12.00;7.78;;;;;;;-144.30;72.76;84939.25;5050842;28;20196;-63
2023/09/27 05:22:36;;;;;;;11.43;8.07;;;;;;;-144.30;70.99;84903.47;5051181;28;20196;-62
2023/09/27 05:25:07;;;;;;;14.63;7.20;;;;;;;-144.30;69.17;84833.88;5051030;28;20687;-63
2023/09/27 05:27:34;;;;;;;34.42;8.52;;;;;;;-144.30;68.40;85360.66;5050746;28;20220;-62
2023/09/27 05:30:01;;;;;;;20.85;7.30;;;;;;;-144.30;68.62;84875.63;5051035;28;20300;-62
2023/09/27 05:32:28;;;;;;;33.63;6.70;;;;;;;-144.30;69.46;84883.59;5050792;28;20193;-62
2023/09/27 05:34:55;;;;;;;19.55;6.95;;;;;;;-144.30;69.73;84895.50;5050886;28;20206;-63
2023/09/27 05:37:22;;;;;;;13.98;7.00;;;;;;;-144.30;69.25;84829.91;5050989;28;20771;-63
2023/09/27 05:39:49;;;;;;;15.15;6.82;;;;;;;-144.30;66.92;84953.16;5050703;28;20212;-64
2023/09/27 05:42:17;;;;;;;10.88;6.18;;;;;;;-144.30;63.41;84631.16;5050544;28;20207;-63
2023/09/27 05:44:44;;;;;;;20.73;6.40;;;;;;;-144.30;61.08;84549.69;5050523;28;20215;-62
2023/09/27 05:47:11;;;;;;;33.70;18.55;;;;;;;-144.30;59.07;84505.94;5050354;28;20228;-63
2023/09/27 05:49:38;;;;;;;16.13;6.40;;;;;;;-144.30;57.52;84406.59;5050479;28;20197;-64
2023/09/27 05:52:05;;;;;;;17.27;7.13;;;;;;;-144.30;56.06;84344.97;5050535;28;20636;-64
2023/09/27 05:54:32;;;;;;;16.67;6.25;;;;;;;-144.30;54.50;84277.41;5050098;28;20232;-64
2023/09/27 05:57:00;;;;;;;16.92;8.73;;;;;;;-144.30;51.92;84084.66;5050141;28;20719;-64
2023/09/27 05:59:28;;;;;;;13.02;7.18;;;;;;;-144.30;48.80;83901.81;5050435;28;20250;-64
2023/09/27 06:01:55;;;;;;;14.38;5.95;;;;;;;-144.30;45.78;83703.13;5050499;28;20232;-65
2023/09/27 06:04:21;;;;;;;17.50;6.38;;;;;;;-144.30;43.78;83544.16;5050285;28;20199;-64
2023/09/27 06:06:49;;;;;;;30.60;8.50;;;;;;;-144.30;43.38;83536.22;5050113;28;20203;-64
2023/09/27 06:09:16;;;;;;;15.20;6.35;;;;;;;-144.30;42.25;83397.16;5050049;28;20205;-65
2023/09/27 06:11:43;;;;;;;14.57;7.53;;;;;;;-144.30;40.01;83148.81;5049995;28;20197;-65
2023/09/27 06:14:10;;;;;;;12.00;9.43;;;;;;;-144.30;37.36;82880.63;5050082;28;20205;-65
2023/09/27 06:16:39;;;;;;;15.18;6.72;;;;;;;-144.30;36.26;82642.25;5050340;28;20568;-64
2023/09/27 06:19:08;;;;;;;18.85;6.30;;;;;;;-144.30;33.85;82326.44;5049920;28;20196;-65
2023/09/27 06:21:35;;;;;;;19.23;5.95;;;;;;;-144.30;33.27;82300.63;5047869;28;20291;-65
2023/09/27 06:24:02;;;;;;;8.10;5.80;;;;;;;-144.30;33.42;82431.69;5047858;28;20193;-64
2023/09/27 06:26:29;;;;;;;16.48;5.75;;;;;;;-144.30;33.48;82239.03;5048111;28;20228;-65
2023/09/27 06:28:56;;;;;;;12.38;5.85;;;;;;;-144.30;33.46;82306.56;5050146;28;20286;-65
2023/09/27 06:31:22;;;;;;;16.98;5.75;;;;;;;-144.30;32.94;82280.75;5049983;28;20196;-65
2023/09/27 06:33:51;;;;;;;23.08;5.40;;;;;;;-144.30;32.00;81992.78;5048777;28;20200;-66
2023/09/27 06:36:21;;;;;;;23.13;5.93;;;;;;;-144.30;31.75;82026.53;5049067;28;20211;-64
2023/09/27 06:38:48;;;;;;;13.65;4.95;;;;;;;-144.30;31.66;81982.84;5049528;28;20708;-65
2023/09/27 06:41:15;;;;;;;10.18;5.30;;;;;;;-144.30;31.00;81812.06;5049809;28;20594;-65
2023/09/27 06:43:42;;;;;;;17.95;11.35;;;;;;;-144.30;30.51;81669.06;5049291;28;20675;-65
2023/09/27 06:46:10;;;;;;;18.92;8.35;;;;;;;-144.30;29.99;81551.91;5049449;28;20668;-65
2023/09/27 06:48:37;;;;;;;10.77;5.82;;;;;;;-144.30;29.70;81418.88;5049659;28;20699;-65
2023/09/27 06:51:06;;;;;;;18.33;5.78;;;;;;;-144.30;28.76;81248.13;5049302;28;20322;-66
2023/09/27 06:53:34;;;;;;;16.38;6.75;;;;;;;-144.30;28.97;81349.38;5049259;28;20227;-65
2023/09/27 06:56:02;;;;;;;13.27;5.18;;;;;;;-144.30;28.56;81162.72;5049435;28;20207;-65
2023/09/27 06:58:30;;;;;;;14.52;5.97;;;;;;;-144.30;28.03;81134.94;5049927;28;20203;-65
2023/09/27 07:00:57;;;;;;;11.98;4.90;;;;;;;-144.30;28.49;81250.09;5049685;28;20200;-66
2023/09/27 07:03:27;;;;;;;13.68;5.70;;;;;;;-144.30;28.54;81363.28;5049570;28;20294;-65
2023/09/27 07:05:54;;;;;;;17.25;6.80;;;;;;;-144.30;28.85;81273.91;5049363;28;20287;-65
2023/09/27 07:08:22;;;;;;;13.45;6.03;;;;;;;-144.30;28.09;81176.63;5049660;28;20664;-66
2023/09/27 07:10:49;;;;;;;25.15;6.18;;;;;;;-144.30;27.84;80970.16;5049611;28;20748;-66
2023/09/27 07:13:16;;;;;;;10.57;5.10;;;;;;;-144.30;28.23;81190.53;5049833;28;20683;-65
2023/09/27 07:15:45;;;;;;;12.52;6.70;;;;;;;-144.30;28.00;81049.56;5049981;28;20719;-65
2023/09/27 07:18:13;;;;;;;13.13;5.82;;;;;;;-144.30;27.32;80815.28;5049433;28;20274;-65
2023/09/27 07:20:41;;;;;;;17.48;6.22;;;;;;;-144.30;27.12;80708.09;5049666;28;20196;-65
2023/09/27 07:23:14;;;;;;;30.40;7.22;;;;;;;-144.30;26.90;80743.81;5049580;28;20632;-65
2023/09/27 07:25:42;;;;;;;19.05;6.05;;;;;;;-144.30;27.13;80787.50;5049511;28;20200;-63
2023/09/27 07:28:10;;;;;;;16.15;5.45;;;;;;;-144.30;27.81;81210.38;5049311;28;20230;-66
2023/09/27 07:30:37;;;;;;;21.33;5.10;;;;;;;-144.30;29.38;81752.47;5049150;28;20287;-66
2023/09/27 07:33:09;;;;;;;7.38;4.45;;;;;;;-144.30;30.33;81913.34;5049290;28;20690;-65
2023/09/27 07:35:41;;;;;;;10.15;5.80;;;;;;;-144.30;31.61;82131.78;5047234;28;20207;-65
2023/09/27 07:38:09;;;;;;;14.88;5.30;;;;;;;-144.30;32.97;82491.28;5051704;28;20594;-65
2023/09/27 07:40:36;;;;;;;9.55;5.15;;;;;;;-144.30;34.21;82729.66;5052546;28;20718;-65
2023/09/27 07:43:05;;;;;;;10.02;5.22;;;;;;;-144.30;35.73;82966.03;5052805;28;20578;-65
2023/09/27 07:45:32;;;;;;;16.38;5.50;;;;;;;-144.30;36.84;83075.31;5052013;28;20209;-65
2023/09/27 07:47:59;;;;;;;10.50;5.20;;;;;;;-144.30;38.18;83285.88;5052885;28;20227;-65
2023/09/27 07:50:28;;;;;;;12.80;4.85;;;;;;;-144.30;39.65;83361.38;5052838;28;20656;-64
2023/09/27 07:52:55;;;;;;;19.75;5.20;;;;;;;-144.30;40.23;83440.84;5052553;28;20233;-64
2023/09/27 07:55:23;;;;;;;9.13;5.13;;;;;;;-144.30;41.02;83552.13;5052716;28;20200;-61
2023/09/27 07:57:52;;;;;;;8.15;4.78;;;;;;;-144.30;42.29;83681.28;5052489;28;20188;-63
2023/09/27 08:00:27;;;;;;;12.07;4.82;;;;;;;-144.30;43.19;83740.88;5052739;28;20556;-63
2023/09/27 08:03:51;;;;;;;8.95;5.05;;;;;;;-144.30;43.37;83766.72;5052392;28;20200;-64
2023/09/27 08:06:19;;;;;;;7.32;4.38;;;;;;;-144.30;43.63;83836.25;5052394;28;20668;-64
2023/09/27 08:08:47;;;;;;;13.13;5.40;;;;;;;-144.30;44.69;83810.41;5052347;28;20228;-64
2023/09/27 08:11:14;;;;;;;7.47;4.38;;;;;;;-144.30;44.72;83836.25;5052314;28;20250;-63
2023/09/27 08:13:41;;;;;;;10.70;5.45;;;;;;;-144.30;44.62;83774.66;5052441;28;20204;-65
2023/09/27 08:16:10;;;;;;;21.27;6.28;;;;;;;-144.30;44.98;83770.69;5052233;28;20231;-65
2023/09/27 08:18:37;;;;;;;12.63;4.95;;;;;;;-144.30;43.59;83740.88;5052172;28;20193;-64
2023/09/27 08:21:04;;;;;;;12.10;4.75;;;;;;;-144.30;43.72;83724.97;5052680;28;20695;-63
2023/09/27 08:23:32;;;;;;;14.18;5.40;;;;;;;-144.30;43.39;83723.00;5052849;28;20197;-64
2023/09/27 08:25:59;;;;;;;18.25;5.40;;;;;;;-144.30;43.40;83744.84;5052356;28;20580;-64
2023/09/27 08:28:26;;;;;;;12.63;5.30;;;;;;;-144.30;43.18;83740.88;5051942;28;20228;-63
2023/09/27 08:30:58;;;;;;;16.92;5.28;;;;;;;-144.30;43.21;83750.81;5051957;28;20247;-63
2023/09/27 08:33:27;;;;;;;8.05;5.20;;;;;;;-144.30;43.66;83750.81;5052085;28;20299;-64
2023/09/27 08:35:55;;;;;;;9.02;5.32;;;;;;;-144.30;43.53;83758.75;5051915;28;20203;-64
2023/09/27 08:38:21;;;;;;;6.68;5.07;;;;;;;-144.30;43.12;83766.72;5052116;28;20279;-62
2023/09/27 08:40:49;;;;;;;9.93;5.30;;;;;;;-144.30;42.77;83750.81;5051921;28;20203;-64
2023/09/27 08:43:16;;;;;;;5.80;4.75;;;;;;;-144.30;41.78;83738.88;5051798;28;20196;-64
2023/09/27 08:45:45;;;;;;;11.68;4.85;;;;;;;-144.30;41.28;83719.03;5051345;28;20196;-64
2023/09/27 08:48:18;;;;;;;8.15;4.70;;;;;;;-144.30;41.16;83724.97;5051701;28;20226;-65
2023/09/27 08:50:47;;;;;;;24.15;5.50;;;;;;;-144.30;41.74;83750.81;5046704;28;20197;-64
2023/09/27 08:53:14;;;;;;;9.95;4.95;;;;;;;-144.30;41.49;83697.16;5051096;28;20246;-63
2023/09/27 08:55:47;;;;;;;10.30;5.43;;;;;;;-144.30;41.87;83758.75;5051467;28;20288;-64
2023/09/27 08:58:15;;;;;;;11.43;5.32;;;;;;;-144.30;42.49;83907.78;5051196;28;20289;-63
2023/09/27 09:00:42;;;;;;;8.38;4.60;;;;;;;-144.30;42.89;83870.03;5062835;28;20266;-63
2023/09/27 09:03:10;;;;;;;11.63;5.03;;;;;;;-144.30;42.93;83810.41;5051508;28;20208;-64
2023/09/27 09:05:39;;;;;;;11.50;5.70;;;;;;;-144.30;42.80;83822.34;5051122;28;20670;-64
2023/09/27 09:08:09;;;;;;;9.52;5.15;;;;;;;-144.30;42.16;83800.50;5050611;28;20224;-61
2023/09/27 09:10:37;;;;;;;10.13;4.80;;;;;;;-144.30;42.04;83715.03;5051478;28;20262;-63
2023/09/27 09:13:05;;;;;;;15.05;5.47;;;;;;;-144.30;41.40;83703.13;5051275;28;20196;-64
2023/09/27 09:15:39;;;;;;;14.40;5.55;;;;;;;-144.30;41.20;83575.97;5051214;28;20196;-63
2023/09/27 09:18:08;;;;;;;10.75;5.75;;;;;;;-144.30;40.85;83633.59;5051251;28;20283;-62
2023/09/27 09:20:49;;;;;;;12.15;4.85;;;;;;;-144.30;41.18;83655.44;5046834;28;20584;-63
2023/09/27 09:23:31;;;;;;;16.90;5.05;;;;;;;-144.30;41.16;83635.56;5048052;28;20594;-62
2023/09/27 09:25:58;;;;;;;16.10;5.28;;;;;;;-144.30;40.82;83647.50;5051033;28;20200;-63
2023/09/27 09:28:25;;;;;;;11.80;4.93;;;;;;;-144.30;40.79;83631.59;5051121;28;20282;-64
2023/09/27 09:30:54;;;;;;;8.13;4.65;;;;;;;-144.30;40.59;83615.69;5050801;28;20200;-62
2023/09/27 09:33:21;;;;;;;16.98;5.10;;;;;;;-144.30;40.50;83641.53;5050812;28;20672;-64
2023/09/27 09:35:48;;;;;;;9.68;4.70;;;;;;;-144.30;40.02;83663.38;5050779;28;20219;-63
2023/09/27 09:38:24;;;;;;;42.10;8.70;;;;;;;-144.30;40.05;83609.75;5051151;28;20196;-62
2023/09/27 09:40:57;;;;;;;10.07;4.72;;;;;;;-144.30;39.82;83669.34;5050904;28;20654;-64
2023/09/27 09:43:34;;;;;;;12.50;4.70;;;;;;;-144.30;39.68;83613.72;5050836;28;20211;-63
2023/09/27 09:46:03;;;;;;;9.90;5.10;;;;;;;-144.30;39.30;83583.91;5050787;28;20200;-63
2023/09/27 09:48:32;;;;;;;8.55;4.55;;;;;;;-144.30;39.44;83613.72;5050559;28;20772;-63
2023/09/27 09:51:05;;;;;;;11.65;4.85;;;;;;;-144.30;39.39;83591.84;5050969;28;20607;-63
2023/09/27 09:53:35;;;;;;;11.73;4.45;;;;;;;-144.30;39.36;83591.84;5050420;28;20240;-64
2023/09/27 09:56:04;;;;;;;10.40;5.38;;;;;;;-144.30;40.23;83625.63;5050664;28;20625;-63
2023/09/27 09:58:35;;;;;;;9.20;4.53;;;;;;;-144.30;39.15;83611.72;5049978;28;20192;-64
2023/09/27 10:01:04;;;;;;;12.98;5.35;;;;;;;-144.30;38.38;83572.00;5050365;28;20207;-63
2023/09/27 10:03:33;;;;;;;9.07;4.70;;;;;;;-144.30;38.42;83573.97;5050657;28;20629;-63
2023/09/27 10:06:01;;;;;;;10.38;4.55;;;;;;;-144.30;38.71;83599.81;5050624;28;20215;-64
2023/09/27 10:08:34;;;;;;;12.85;4.90;;;;;;;-144.30;39.30;83655.44;5050317;28;20224;-63
2023/09/27 10:11:05;;;;;;;13.57;4.75;;;;;;;-144.30;39.22;83575.97;5050302;28;20254;-63
2023/09/27 10:13:35;;;;;;;11.75;4.20;;;;;;;-144.30;39.38;83635.56;5050235;28;20711;-64
2023/09/27 10:16:03;;;;;;;9.60;5.05;;;;;;;-144.30;39.27;83627.63;5050413;28;20192;-64
2023/09/27 10:18:37;;;;;;;11.23;4.90;;;;;;;-144.30;38.96;83601.78;5050163;28;20239;-64
2023/09/27 10:21:07;;;;;;;8.18;4.25;;;;;;;-144.30;38.81;83391.19;5050274;28;20720;-64
2023/09/27 10:23:57;;;;;;;9.80;4.78;;;;;;;-144.30;38.43;83587.88;5049750;28;20200;-64
2023/09/27 10:26:35;;;;;;;11.85;5.03;;;;;;;-144.30;38.45;83528.28;5048945;28;20280;-64
2023/09/27 10:29:16;;;;;;;5.50;4.32;;;;;;;-144.30;38.42;83516.34;5049622;28;20216;-64
2023/09/27 10:32:20;;;;;;;10.93;5.00;;;;;;;-144.30;38.30;83585.91;5049846;28;20607;-65
2023/09/27 10:34:47;;;;;;;13.57;5.03;;;;;;;-144.30;38.71;83615.69;5049913;28;20200;-65
2023/09/27 10:37:14;;;;;;;10.70;5.10;;;;;;;-144.30;38.96;83617.69;5050261;28;20572;-65
2023/09/27 10:39:41;;;;;;;7.53;5.82;;;;;;;-144.30;39.08;83651.47;5050280;28;20196;-63
2023/09/27 10:42:10;;;;;;;10.40;5.13;;;;;;;-144.30;38.95;83623.66;5049957;28;20201;-63
2023/09/27 10:44:43;;;;;;;9.52;5.13;;;;;;;-144.30;38.97;83903.81;5049829;28;20196;-63
2023/09/27 10:47:12;;;;;;;12.10;4.43;;;;;;;-144.30;38.36;83629.59;5050188;28;20204;-62
2023/09/27 10:49:40;;;;;;;13.88;5.63;;;;;;;-144.30;38.50;83601.78;5049836;28;20220;-62
2023/09/27 10:52:16;;;;;;;10.52;5.15;;;;;;;-144.30;38.10;83573.97;5049845;28;20197;-63
2023/09/27 10:54:43;;;;;;;18.17;4.78;;;;;;;-144.30;38.14;84601.34;5049802;28;20228;-64
2023/09/27 10:57:13;;;;;;;8.52;5.00;;;;;;;-144.30;37.87;83552.13;5049696;28;20669;-63
2023/09/27 10:59:41;;;;;;;8.75;4.82;;;;;;;-144.30;37.83;83496.50;5049941;28;20699;-61
2023/09/27 11:02:08;;;;;;;7.47;5.25;;;;;;;-144.30;37.87;83524.31;5043727;28;20696;-62
2023/09/27 11:04:36;;;;;;;10.27;5.38;;;;;;;-144.30;37.66;83520.31;5040769;28;20198;-63
2023/09/27 11:07:04;;;;;;;15.85;6.07;;;;;;;-144.30;37.48;83482.56;5038085;28;20205;-63
2023/09/27 11:09:31;;;;;;;9.60;4.80;;;;;;;-144.30;37.40;83468.66;5042600;28;20278;-63
2023/09/27 11:11:59;;;;;;;13.43;5.35;;;;;;;-144.30;37.18;83452.78;5043679;28;20194;-63
2023/09/27 11:14:29;;;;;;;7.57;5.07;;;;;;;-144.30;36.87;83395.16;5042192;28;20198;-63